createdAt,value
2017-01-20T00:00:03.824Z,24.02
2017-01-20T00:00:44.468Z,24.02
2017-01-20T00:01:25.130Z,24.11
2017-01-20T00:02:05.776Z,24.02
2017-01-20T00:02:46.467Z,24.02
2017-01-20T00:03:27.203Z,24.02
2017-01-20T00:04:07.891Z,24.11
2017-01-20T00:04:48.524Z,24.21
2017-01-20T00:05:29.229Z,24.21
2017-01-20T00:06:09.857Z,24.11
2017-01-20T00:06:50.484Z,24.21
2017-01-20T00:07:31.203Z,24.11
2017-01-20T00:08:11.923Z,24.11
2017-01-20T00:08:52.568Z,24.11
2017-01-20T00:09:33.257Z,24.02
2017-01-20T00:10:13.987Z,24.02
2017-01-20T00:10:54.737Z,24.02
2017-01-20T00:11:35.397Z,24.02
2017-01-20T00:12:16.081Z,24.02
2017-01-20T00:12:56.722Z,24.11
2017-01-20T00:13:37.356Z,24.21
2017-01-20T00:14:18.009Z,24.02
2017-01-20T00:14:58.638Z,24.02
2017-01-20T00:15:39.261Z,24.11
2017-01-20T00:16:19.968Z,24.11
2017-01-20T00:17:00.648Z,24.21
2017-01-20T00:17:41.274Z,23.92
2017-01-20T00:18:21.919Z,24.21
2017-01-20T00:19:02.601Z,24.21
2017-01-20T00:19:43.243Z,24.02
2017-01-20T00:20:23.976Z,24.02
2017-01-20T00:21:04.618Z,24.02
2017-01-20T00:21:45.279Z,24.02
2017-01-20T00:22:25.905Z,24.5
2017-01-20T00:23:06.656Z,24.5
2017-01-20T00:23:47.285Z,24.5
2017-01-20T00:24:27.921Z,24.4
2017-01-20T00:25:08.592Z,24.5
2017-01-20T00:25:49.305Z,24.5
2017-01-20T00:26:29.970Z,24.4
2017-01-20T00:27:10.679Z,24.6
2017-01-20T00:27:51.387Z,24.6
2017-01-20T00:28:32.030Z,24.3
2017-01-20T00:29:12.706Z,24.5
2017-01-20T00:29:53.439Z,24.3
2017-01-20T00:30:34.112Z,24.3
2017-01-20T00:31:14.758Z,24.4
2017-01-20T00:31:55.465Z,24.4
2017-01-20T00:32:36.101Z,24.5
2017-01-20T00:33:16.729Z,24.21
2017-01-20T00:33:57.441Z,24.21
2017-01-20T00:34:38.072Z,24.21
2017-01-20T00:35:18.706Z,24.4
2017-01-20T00:35:59.360Z,24.3
2017-01-20T00:36:39.985Z,24.21
2017-01-20T00:37:20.626Z,24.3
2017-01-20T00:38:01.323Z,24.2
2017-01-20T00:38:42.040Z,24.2
2017-01-20T00:39:22.689Z,24.11
2017-01-20T00:40:03.432Z,24.21
2017-01-20T00:40:44.130Z,24.21
2017-01-20T00:41:24.840Z,24.21
2017-01-20T00:42:05.474Z,24.4
2017-01-20T00:42:46.175Z,24.49
2017-01-20T00:43:26.942Z,24.2
2017-01-20T00:44:07.572Z,24.4
2017-01-20T00:44:48.215Z,24.69
2017-01-20T00:45:28.881Z,24.58
2017-01-20T00:46:09.512Z,24.6
2017-01-20T00:46:50.137Z,24.6
2017-01-20T00:47:30.827Z,24.5
2017-01-20T00:48:11.491Z,24.3
2017-01-20T00:48:52.159Z,24.68
2017-01-20T00:49:32.789Z,24.68
2017-01-20T00:50:13.422Z,24.39
2017-01-20T00:50:54.108Z,24.68
2017-01-20T00:51:34.817Z,24.6
2017-01-20T00:52:15.469Z,24.49
2017-01-20T00:52:56.117Z,24.49
2017-01-20T00:53:36.847Z,24.5
2017-01-20T00:54:17.471Z,24.6
2017-01-20T00:54:58.118Z,24.58
2017-01-20T00:55:38.753Z,24.69
2017-01-20T00:56:19.375Z,24.68
2017-01-20T00:57:00.010Z,24.68
2017-01-20T00:57:40.636Z,24.68
2017-01-20T00:58:21.359Z,24.49
2017-01-20T00:59:02.680Z,24.68
2017-01-20T00:59:43.409Z,24.69
2017-01-20T01:00:24.085Z,24.68
2017-01-20T01:01:04.768Z,24.68
2017-01-20T01:01:45.455Z,24.68
2017-01-20T01:02:26.304Z,24.68
2017-01-20T01:03:07.189Z,24.79
2017-01-20T01:03:47.981Z,24.77
2017-01-20T01:04:28.782Z,24.68
2017-01-20T01:05:09.646Z,24.88
2017-01-20T01:05:50.670Z,24.96
2017-01-20T01:06:31.579Z,24.77
2017-01-20T01:07:12.559Z,25.06
2017-01-20T01:07:53.395Z,24.77
2017-01-20T01:08:34.280Z,24.79
2017-01-20T01:09:15.129Z,24.98
2017-01-20T01:09:55.812Z,24.96
2017-01-20T01:10:36.533Z,24.77
2017-01-20T01:11:17.377Z,24.68
2017-01-20T01:11:58.069Z,25.06
2017-01-20T01:12:38.735Z,24.87
2017-01-20T01:13:19.410Z,24.87
2017-01-20T01:14:00.048Z,24.77
2017-01-20T01:14:40.676Z,24.77
2017-01-20T01:15:21.299Z,24.87
2017-01-20T01:16:02.041Z,24.68
2017-01-20T01:16:42.725Z,24.68
2017-01-20T01:17:23.328Z,24.77
2017-01-20T01:18:03.973Z,24.77
2017-01-20T01:18:44.610Z,24.77
2017-01-20T01:19:25.260Z,24.68
2017-01-20T01:20:05.895Z,24.77
2017-01-20T01:20:46.530Z,24.77
2017-01-20T01:21:27.225Z,24.49
2017-01-20T01:22:07.969Z,24.87
2017-01-20T01:22:48.643Z,24.87
2017-01-20T01:23:29.286Z,24.87
2017-01-20T01:24:09.975Z,24.68
2017-01-20T01:24:50.661Z,24.77
2017-01-20T01:25:31.435Z,24.68
2017-01-20T01:26:12.083Z,24.77
2017-01-20T01:26:52.816Z,24.87
2017-01-20T01:27:33.498Z,24.87
2017-01-20T01:28:14.153Z,24.58
2017-01-20T01:28:54.869Z,24.87
2017-01-20T01:29:35.543Z,24.87
2017-01-20T01:30:16.171Z,24.87
2017-01-20T01:30:56.833Z,24.87
2017-01-20T01:31:37.468Z,24.58
2017-01-20T01:32:18.079Z,24.68
2017-01-20T01:32:58.763Z,24.58
2017-01-20T01:33:39.504Z,24.58
2017-01-20T01:34:20.129Z,24.6
2017-01-20T01:35:00.782Z,24.68
2017-01-20T01:35:41.472Z,24.58
2017-01-20T01:36:22.104Z,24.58
2017-01-20T01:37:02.743Z,24.58
2017-01-20T01:37:43.414Z,24.68
2017-01-20T01:38:24.050Z,24.68
2017-01-20T01:39:04.716Z,24.58
2017-01-20T01:39:45.350Z,24.68
2017-01-20T01:40:25.976Z,24.49
2017-01-20T01:41:06.678Z,24.49
2017-01-20T01:41:47.378Z,24.39
2017-01-20T01:42:28.037Z,24.77
2017-01-20T01:43:08.683Z,24.77
2017-01-20T01:43:49.323Z,25.06
2017-01-20T01:44:29.982Z,24.96
2017-01-20T01:45:10.606Z,25.06
2017-01-20T01:45:51.277Z,24.96
2017-01-20T01:46:31.994Z,24.87
2017-01-20T01:47:12.644Z,24.96
2017-01-20T01:47:53.302Z,24.96
2017-01-20T01:48:33.968Z,24.96
2017-01-20T01:49:14.604Z,24.96
2017-01-20T01:49:55.276Z,24.96
2017-01-20T01:50:35.999Z,24.96
2017-01-20T01:51:16.624Z,24.87
2017-01-20T01:51:57.263Z,24.68
2017-01-20T01:52:37.926Z,24.68
2017-01-20T01:53:18.549Z,24.77
2017-01-20T01:53:59.247Z,24.68
2017-01-20T01:54:39.890Z,24.68
2017-01-20T01:55:20.512Z,24.77
2017-01-20T01:56:01.139Z,24.87
2017-01-20T01:56:41.763Z,25.16
2017-01-20T01:57:22.398Z,24.96
2017-01-20T01:58:03.038Z,24.96
2017-01-20T01:58:43.653Z,24.96
2017-01-20T01:59:24.274Z,25.16
2017-01-20T02:00:04.915Z,25.35
2017-01-20T02:00:45.609Z,25.16
2017-01-20T02:01:26.243Z,25.16
2017-01-20T02:02:06.877Z,25.06
2017-01-20T02:02:47.563Z,25.16
2017-01-20T02:03:28.189Z,24.96
2017-01-20T02:04:08.823Z,25.06
2017-01-20T02:04:49.483Z,25.16
2017-01-20T02:05:30.123Z,25.26
2017-01-20T02:06:10.835Z,25.16
2017-01-20T02:06:51.489Z,25.06
2017-01-20T02:07:32.118Z,25.06
2017-01-20T02:08:12.781Z,25.16
2017-01-20T02:08:53.406Z,25.16
2017-01-20T02:09:34.027Z,25.06
2017-01-20T02:10:14.726Z,24.96
2017-01-20T02:10:55.353Z,25.06
2017-01-20T02:11:35.979Z,24.96
2017-01-20T02:12:16.633Z,25.06
2017-01-20T02:12:57.340Z,25.06
2017-01-20T02:13:37.981Z,25.06
2017-01-20T02:14:18.636Z,25.16
2017-01-20T02:14:59.340Z,25.16
2017-01-20T02:15:39.990Z,25.06
2017-01-20T02:16:20.679Z,25.06
2017-01-20T02:17:01.384Z,25.06
2017-01-20T02:17:42.067Z,25.16
2017-01-20T02:18:22.689Z,25.26
2017-01-20T02:19:03.352Z,24.96
2017-01-20T02:19:43.978Z,24.96
2017-01-20T02:20:24.619Z,25.06
2017-01-20T02:21:05.296Z,25.16
2017-01-20T02:21:45.922Z,24.96
2017-01-20T02:22:26.562Z,25.06
2017-01-20T02:23:07.210Z,25.16
2017-01-20T02:23:47.915Z,25.16
2017-01-20T02:24:28.560Z,24.87
2017-01-20T02:25:09.256Z,25.26
2017-01-20T02:25:49.919Z,25.06
2017-01-20T02:26:30.543Z,25.06
2017-01-20T02:27:11.249Z,25.06
2017-01-20T02:27:51.907Z,25.16
2017-01-20T02:28:32.538Z,25.26
2017-01-20T02:29:13.258Z,25.26
2017-01-20T02:29:53.891Z,25.16
2017-01-20T02:30:34.520Z,25.26
2017-01-20T02:31:15.176Z,25.26
2017-01-20T02:31:55.812Z,25.16
2017-01-20T02:32:36.433Z,25.35
2017-01-20T02:33:17.113Z,25.45
2017-01-20T02:33:57.736Z,25.35
2017-01-20T02:34:38.365Z,25.64
2017-01-20T02:35:19.035Z,25.54
2017-01-20T02:35:59.746Z,25.54
2017-01-20T02:36:40.371Z,25.54
2017-01-20T02:37:21.070Z,25.45
2017-01-20T02:38:01.788Z,25.64
2017-01-20T02:38:42.485Z,25.45
2017-01-20T02:39:23.152Z,25.54
2017-01-20T02:40:03.839Z,25.35
2017-01-20T02:40:44.526Z,25.93
2017-01-20T02:41:25.156Z,25.26
2017-01-20T02:42:05.803Z,25.83
2017-01-20T02:42:46.564Z,25.83
2017-01-20T02:43:27.196Z,25.83
2017-01-20T02:44:07.824Z,25.83
2017-01-20T02:44:48.489Z,25.64
2017-01-20T02:45:29.118Z,25.83
2017-01-20T02:46:09.746Z,25.73
2017-01-20T02:46:50.437Z,25.73
2017-01-20T02:47:31.054Z,25.73
2017-01-20T02:48:11.755Z,25.54
2017-01-20T02:48:52.494Z,25.64
2017-01-20T02:49:33.187Z,25.64
2017-01-20T02:50:13.825Z,25.73
2017-01-20T02:50:54.524Z,25.64
2017-01-20T02:51:35.197Z,25.64
2017-01-20T02:52:15.831Z,25.54
2017-01-20T02:52:56.485Z,25.54
2017-01-20T02:53:37.207Z,25.93
2017-01-20T02:54:17.841Z,25.93
2017-01-20T02:54:58.477Z,25.83
2017-01-20T02:55:39.192Z,25.93
2017-01-20T02:56:19.831Z,26.12
2017-01-20T02:57:00.463Z,25.83
2017-01-20T02:57:41.154Z,25.73
2017-01-20T02:58:21.788Z,25.73
2017-01-20T02:59:02.458Z,25.83
2017-01-20T02:59:43.184Z,25.93
2017-01-20T03:00:23.833Z,25.93
2017-01-20T03:01:04.474Z,25.64
2017-01-20T03:01:45.128Z,26.03
2017-01-20T03:02:25.814Z,26.03
2017-01-20T03:03:06.495Z,26.03
2017-01-20T03:03:47.225Z,26.03
2017-01-20T03:04:27.911Z,25.93
2017-01-20T03:05:08.535Z,26.12
2017-01-20T03:05:49.172Z,26.03
2017-01-20T03:06:29.874Z,26.12
2017-01-20T03:07:10.492Z,25.93
2017-01-20T03:07:51.215Z,26.12
2017-01-20T03:08:31.938Z,25.93
2017-01-20T03:09:12.592Z,26.03
2017-01-20T03:09:53.263Z,26.12
2017-01-20T03:10:33.966Z,26.12
2017-01-20T03:11:14.770Z,26.12
2017-01-20T03:11:55.419Z,26.12
2017-01-20T03:12:36.040Z,25.93
2017-01-20T03:13:16.725Z,25.93
2017-01-20T03:13:57.361Z,26.12
2017-01-20T03:14:37.997Z,26.03
2017-01-20T03:15:18.676Z,26.21
2017-01-20T03:15:59.309Z,26.4
2017-01-20T03:16:39.958Z,26.6
2017-01-20T03:17:20.690Z,26.5
2017-01-20T03:18:01.361Z,26.4
2017-01-20T03:18:41.996Z,26.21
2017-01-20T03:19:22.734Z,26.79
2017-01-20T03:20:03.388Z,26.79
2017-01-20T03:20:44.017Z,26.6
2017-01-20T03:21:24.686Z,26.5
2017-01-20T03:22:05.396Z,26.6
2017-01-20T03:22:46.026Z,26.6
2017-01-20T03:23:26.674Z,26.4
2017-01-20T03:24:07.380Z,26.5
2017-01-20T03:24:48.011Z,26.31
2017-01-20T03:25:28.701Z,26.6
2017-01-20T03:26:09.431Z,26.31
2017-01-20T03:26:50.106Z,26.6
2017-01-20T03:27:30.754Z,26.5
2017-01-20T03:28:11.466Z,26.6
2017-01-20T03:28:52.253Z,26.7
2017-01-20T03:29:32.910Z,26.7
2017-01-20T03:30:13.536Z,26.5
2017-01-20T03:30:54.242Z,26.79
2017-01-20T03:31:34.887Z,26.79
2017-01-20T03:32:15.511Z,26.89
2017-01-20T03:32:56.147Z,26.7
2017-01-20T03:33:36.776Z,26.89
2017-01-20T03:34:17.403Z,26.98
2017-01-20T03:34:58.084Z,26.7
2017-01-20T03:35:38.708Z,26.89
2017-01-20T03:36:19.348Z,26.98
2017-01-20T03:36:59.998Z,26.7
2017-01-20T03:37:40.624Z,26.89
2017-01-20T03:38:21.407Z,26.89
2017-01-20T03:39:02.070Z,27.27
2017-01-20T03:39:42.717Z,26.98
2017-01-20T03:40:23.354Z,27.08
2017-01-20T03:41:04.033Z,27.08
2017-01-20T03:41:44.688Z,27.17
2017-01-20T03:42:25.312Z,26.98
2017-01-20T03:43:06.034Z,26.7
2017-01-20T03:43:46.769Z,26.98
2017-01-20T03:44:27.396Z,26.98
2017-01-20T03:45:08.027Z,26.89
2017-01-20T03:45:48.719Z,26.6
2017-01-20T03:46:29.351Z,26.89
2017-01-20T03:47:10.066Z,26.89
2017-01-20T03:47:50.794Z,27.37
2017-01-20T03:48:31.550Z,27.37
2017-01-20T03:49:12.211Z,27.37
2017-01-20T03:49:52.868Z,27.27
2017-01-20T03:50:33.497Z,27.08
2017-01-20T03:51:14.127Z,27.27
2017-01-20T03:51:54.880Z,26.98
2017-01-20T03:52:35.579Z,27.08
2017-01-20T03:53:16.204Z,27.16
2017-01-20T03:53:56.835Z,26.98
2017-01-20T03:54:37.508Z,27.27
2017-01-20T03:55:18.141Z,27.27
2017-01-20T03:55:58.844Z,27.08
2017-01-20T03:56:39.593Z,27.17
2017-01-20T03:57:20.275Z,26.98
2017-01-20T03:58:00.909Z,26.89
2017-01-20T03:58:41.604Z,27.27
2017-01-20T03:59:22.225Z,27.08
2017-01-20T04:00:02.870Z,26.98
2017-01-20T04:00:43.516Z,26.87
2017-01-20T04:01:24.151Z,26.89
2017-01-20T04:02:04.780Z,27.27
2017-01-20T04:02:45.444Z,27.16
2017-01-20T04:03:26.157Z,26.89
2017-01-20T04:04:06.783Z,26.79
2017-01-20T04:04:47.406Z,27.27
2017-01-20T04:05:28.083Z,26.98
2017-01-20T04:06:08.710Z,27.27
2017-01-20T04:06:49.358Z,26.89
2017-01-20T04:07:30.013Z,27.17
2017-01-20T04:08:10.662Z,27.17
2017-01-20T04:08:51.354Z,27.17
2017-01-20T04:09:32.010Z,27.47
2017-01-20T04:10:12.642Z,27.17
2017-01-20T04:10:53.283Z,27.27
2017-01-20T04:11:33.924Z,27.37
2017-01-20T04:12:14.575Z,27.36
2017-01-20T04:12:55.228Z,27.45
2017-01-20T04:13:35.849Z,27.45
2017-01-20T04:14:16.479Z,27.56
2017-01-20T04:14:57.147Z,27.45
2017-01-20T04:15:37.897Z,27.45
2017-01-20T04:16:18.541Z,27.45
2017-01-20T04:16:59.257Z,27.26
2017-01-20T04:17:39.886Z,27.27
2017-01-20T04:18:20.512Z,27.26
2017-01-20T04:19:01.158Z,27.26
2017-01-20T04:19:41.780Z,27.26
2017-01-20T04:20:22.417Z,27.37
2017-01-20T04:21:03.117Z,27.36
2017-01-20T04:21:43.841Z,27.26
2017-01-20T04:22:24.498Z,27.36
2017-01-20T04:23:05.141Z,27.56
2017-01-20T04:23:45.827Z,27.36
2017-01-20T04:24:26.474Z,27.45
2017-01-20T04:25:07.102Z,27.55
2017-01-20T04:25:47.822Z,27.45
2017-01-20T04:26:28.446Z,27.56
2017-01-20T04:27:09.094Z,27.45
2017-01-20T04:27:49.734Z,27.45
2017-01-20T04:28:30.432Z,27.47
2017-01-20T04:29:11.060Z,27.83
2017-01-20T04:29:51.684Z,27.64
2017-01-20T04:30:32.355Z,27.45
2017-01-20T04:31:12.977Z,27.56
2017-01-20T04:31:53.682Z,27.73
2017-01-20T04:32:34.356Z,27.64
2017-01-20T04:33:14.986Z,27.64
2017-01-20T04:33:55.748Z,27.93
2017-01-20T04:34:36.455Z,27.94
2017-01-20T04:35:17.100Z,27.93
2017-01-20T04:35:57.751Z,27.64
2017-01-20T04:36:38.411Z,27.93
2017-01-20T04:37:19.134Z,27.83
2017-01-20T04:37:59.791Z,27.83
2017-01-20T04:38:40.440Z,27.73
2017-01-20T04:39:21.110Z,27.83
2017-01-20T04:40:01.738Z,27.64
2017-01-20T04:40:42.422Z,27.64
2017-01-20T04:41:23.115Z,27.64
2017-01-20T04:42:03.738Z,27.64
2017-01-20T04:42:44.460Z,27.83
2017-01-20T04:43:25.085Z,27.83
2017-01-20T04:44:05.730Z,27.64
2017-01-20T04:44:46.417Z,27.73
2017-01-20T04:45:27.074Z,27.93
2017-01-20T04:46:07.700Z,27.73
2017-01-20T04:46:48.336Z,27.64
2017-01-20T04:47:29.037Z,27.93
2017-01-20T04:48:09.666Z,27.64
2017-01-20T04:48:50.291Z,27.93
2017-01-20T04:49:30.940Z,27.83
2017-01-20T04:50:11.565Z,28.03
2017-01-20T04:50:52.305Z,27.83
2017-01-20T04:51:32.953Z,27.83
2017-01-20T04:52:13.587Z,28.03
2017-01-20T04:52:54.214Z,28.03
2017-01-20T04:53:34.948Z,28.03
2017-01-20T04:54:15.596Z,28.03
2017-01-20T04:54:56.240Z,27.93
2017-01-20T04:55:36.974Z,27.93
2017-01-20T04:56:17.600Z,27.83
2017-01-20T04:56:58.241Z,27.93
2017-01-20T04:57:38.935Z,27.93
2017-01-20T04:58:19.685Z,27.93
2017-01-20T04:59:00.318Z,28.03
2017-01-20T04:59:40.964Z,28.12
2017-01-20T05:00:21.636Z,27.93
2017-01-20T05:01:02.269Z,28.03
2017-01-20T05:01:42.975Z,27.93
2017-01-20T05:02:23.606Z,28.03
2017-01-20T05:03:04.234Z,27.83
2017-01-20T05:03:44.916Z,27.93
2017-01-20T05:04:25.647Z,27.93
2017-01-20T05:05:06.339Z,28.03
2017-01-20T05:05:46.987Z,28.03
2017-01-20T05:06:27.646Z,28.03
2017-01-20T05:07:08.282Z,28.12
2017-01-20T05:07:48.910Z,28.12
2017-01-20T05:08:29.587Z,28.12
2017-01-20T05:09:10.216Z,28.22
2017-01-20T05:09:50.863Z,28.12
2017-01-20T05:10:31.517Z,28.12
2017-01-20T05:11:12.202Z,28.12
2017-01-20T05:11:52.829Z,28.22
2017-01-20T05:12:33.523Z,28.22
2017-01-20T05:13:14.220Z,28.22
2017-01-20T05:13:54.851Z,28.12
2017-01-20T05:14:35.569Z,28.22
2017-01-20T05:15:16.191Z,28.12
2017-01-20T05:15:56.844Z,28.31
2017-01-20T05:16:37.527Z,28.22
2017-01-20T05:17:18.239Z,28.03
2017-01-20T05:17:58.947Z,27.93
2017-01-20T05:18:39.510Z,28.03
2017-01-20T05:19:20.250Z,28.12
2017-01-20T05:20:00.951Z,28.22
2017-01-20T05:20:41.581Z,28.22
2017-01-20T05:21:22.231Z,28.5
2017-01-20T05:22:02.915Z,28.6
2017-01-20T05:22:43.544Z,28.31
2017-01-20T05:23:24.235Z,28.31
2017-01-20T05:24:04.933Z,28.31
2017-01-20T05:24:45.553Z,28.31
2017-01-20T05:25:26.248Z,28.5
2017-01-20T05:26:06.883Z,28.31
2017-01-20T05:26:47.533Z,28.31
2017-01-20T05:27:28.209Z,28.31
2017-01-20T05:28:08.848Z,28.41
2017-01-20T05:28:49.472Z,28.31
2017-01-20T05:29:30.125Z,28.41
2017-01-20T05:30:10.816Z,28.41
2017-01-20T05:30:51.453Z,28.31
2017-01-20T05:31:32.081Z,28.41
2017-01-20T05:32:12.734Z,28.31
2017-01-20T05:32:53.387Z,28.31
2017-01-20T05:33:34.033Z,28.31
2017-01-20T05:34:14.678Z,28.22
2017-01-20T05:34:55.317Z,28.22
2017-01-20T05:35:36.006Z,28.22
2017-01-20T05:36:16.746Z,28.22
2017-01-20T05:36:57.439Z,28.22
2017-01-20T05:37:38.068Z,28.12
2017-01-20T05:38:18.760Z,28.12
2017-01-20T05:38:59.390Z,28.22
2017-01-20T05:39:40.020Z,28.22
2017-01-20T05:40:20.678Z,28.12
2017-01-20T05:41:01.329Z,28.12
2017-01-20T05:41:41.967Z,28.22
2017-01-20T05:42:22.615Z,28.12
2017-01-20T05:43:03.302Z,28.31
2017-01-20T05:43:43.928Z,28.31
2017-01-20T05:44:24.579Z,28.31
2017-01-20T05:45:05.263Z,28.22
2017-01-20T05:45:45.885Z,28.12
2017-01-20T05:46:26.596Z,28.5
2017-01-20T05:47:07.247Z,28.12
2017-01-20T05:47:47.900Z,28.12
2017-01-20T05:48:28.576Z,28.03
2017-01-20T05:49:09.264Z,28.12
2017-01-20T05:49:49.912Z,28.22
2017-01-20T05:50:30.561Z,28.03
2017-01-20T05:51:11.179Z,28.12
2017-01-20T05:51:51.820Z,28.12
2017-01-20T05:52:32.478Z,28.12
2017-01-20T05:53:13.112Z,28.12
2017-01-20T05:53:53.730Z,28.6
2017-01-20T05:54:34.485Z,28.12
2017-01-20T05:55:15.169Z,28.03
2017-01-20T05:55:55.837Z,28.6
2017-01-20T05:56:36.507Z,28.6
2017-01-20T05:57:17.289Z,28.41
2017-01-20T05:57:57.912Z,28.5
2017-01-20T05:58:38.562Z,28.7
2017-01-20T05:59:19.264Z,28.7
2017-01-20T05:59:59.914Z,28.79
2017-01-20T06:00:40.536Z,28.79
2017-01-20T06:01:21.201Z,28.79
2017-01-20T06:02:01.821Z,28.7
2017-01-20T06:02:42.459Z,28.6
2017-01-20T06:03:23.133Z,28.7
2017-01-20T06:04:03.833Z,28.6
2017-01-20T06:04:44.478Z,28.7
2017-01-20T06:05:25.094Z,28.89
2017-01-20T06:06:05.786Z,28.89
2017-01-20T06:06:46.409Z,28.89
2017-01-20T06:07:27.108Z,28.89
2017-01-20T06:08:07.838Z,28.89
2017-01-20T06:08:48.493Z,28.79
2017-01-20T06:09:29.133Z,28.7
2017-01-20T06:10:09.794Z,28.6
2017-01-20T06:10:50.500Z,28.7
2017-01-20T06:11:31.154Z,28.7
2017-01-20T06:12:11.890Z,28.7
2017-01-20T06:12:52.575Z,28.6
2017-01-20T06:13:33.197Z,29.08
2017-01-20T06:14:13.849Z,28.5
2017-01-20T06:14:54.537Z,28.89
2017-01-20T06:15:35.176Z,28.31
2017-01-20T06:16:15.801Z,28.79
2017-01-20T06:16:56.461Z,28.5
2017-01-20T06:17:37.107Z,28.99
2017-01-20T06:18:17.809Z,28.22
2017-01-20T06:18:58.551Z,28.22
2017-01-20T06:19:39.235Z,28.22
2017-01-20T06:20:19.880Z,28.5
2017-01-20T06:21:00.539Z,28.6
2017-01-20T06:21:41.172Z,28.79
2017-01-20T06:22:21.813Z,28.79
2017-01-20T06:23:02.565Z,28.99
2017-01-20T06:23:43.257Z,28.99
2017-01-20T06:24:23.885Z,28.99
2017-01-20T06:25:04.598Z,28.99
2017-01-20T06:25:45.331Z,28.89
2017-01-20T06:26:26.007Z,28.99
2017-01-20T06:27:06.651Z,28.89
2017-01-20T06:27:47.355Z,28.89
2017-01-20T06:28:27.991Z,28.79
2017-01-20T06:29:08.609Z,28.89
2017-01-20T06:29:49.300Z,28.89
2017-01-20T06:30:29.994Z,28.99
2017-01-20T06:31:10.635Z,28.89
2017-01-20T06:31:51.263Z,28.99
2017-01-20T06:32:31.977Z,28.79
2017-01-20T06:33:12.631Z,28.89
2017-01-20T06:33:53.282Z,28.79
2017-01-20T06:34:33.989Z,28.79
2017-01-20T06:35:14.634Z,28.89
2017-01-20T06:35:55.260Z,29.27
2017-01-20T06:36:35.914Z,28.99
2017-01-20T06:37:16.558Z,29.08
2017-01-20T06:37:57.257Z,28.99
2017-01-20T06:38:37.927Z,29.27
2017-01-20T06:39:18.643Z,29.17
2017-01-20T06:39:59.199Z,29.27
2017-01-20T06:40:39.887Z,29.17
2017-01-20T06:41:20.640Z,29.08
2017-01-20T06:42:01.278Z,29.27
2017-01-20T06:42:41.945Z,29.08
2017-01-20T06:43:22.571Z,29.27
2017-01-20T06:44:03.197Z,29.27
2017-01-20T06:44:43.903Z,29.17
2017-01-20T06:45:24.650Z,29.17
2017-01-20T06:46:05.280Z,29.17
2017-01-20T06:46:45.998Z,29.17
2017-01-20T06:47:26.740Z,28.99
2017-01-20T06:48:07.432Z,29.08
2017-01-20T06:48:48.078Z,28.89
2017-01-20T06:49:28.768Z,28.89
2017-01-20T06:50:09.423Z,28.89
2017-01-20T06:50:50.059Z,28.89
2017-01-20T06:51:30.694Z,28.99
2017-01-20T06:52:11.446Z,28.99
2017-01-20T06:52:52.075Z,28.99
2017-01-20T06:53:32.733Z,28.99
2017-01-20T06:54:13.403Z,28.89
2017-01-20T06:54:54.050Z,28.89
2017-01-20T06:55:34.750Z,28.99
2017-01-20T06:56:15.478Z,28.99
2017-01-20T06:56:56.142Z,28.89
2017-01-20T06:57:36.763Z,28.99
2017-01-20T06:58:17.410Z,28.79
2017-01-20T06:58:58.053Z,28.99
2017-01-20T06:59:38.694Z,28.79
2017-01-20T07:00:19.359Z,29.08
2017-01-20T07:01:00.045Z,29.27
2017-01-20T07:01:40.689Z,28.89
2017-01-20T07:02:21.346Z,29.27
2017-01-20T07:03:02.052Z,29.17
2017-01-20T07:03:42.694Z,29.17
2017-01-20T07:04:23.347Z,29.27
2017-01-20T07:05:04.057Z,29.37
2017-01-20T07:05:44.710Z,29.27
2017-01-20T07:06:26.051Z,29.56
2017-01-20T07:07:06.683Z,29.27
2017-01-20T07:07:47.329Z,29.27
2017-01-20T07:08:28.001Z,29.37
2017-01-20T07:09:08.625Z,29.27
2017-01-20T07:09:49.349Z,29.27
2017-01-20T07:10:29.988Z,29.27
2017-01-20T07:11:10.607Z,29.37
2017-01-20T07:11:51.304Z,29.27
2017-01-20T07:12:32.011Z,29.37
2017-01-20T07:13:12.655Z,29.27
2017-01-20T07:13:53.287Z,29.37
2017-01-20T07:14:33.946Z,29.17
2017-01-20T07:15:14.587Z,29.37
2017-01-20T07:15:55.220Z,29.27
2017-01-20T07:16:35.882Z,29.37
2017-01-20T07:17:16.590Z,29.27
2017-01-20T07:17:57.232Z,29.27
2017-01-20T07:18:37.930Z,29.47
2017-01-20T07:19:18.670Z,29.47
2017-01-20T07:19:59.290Z,29.37
2017-01-20T07:20:39.997Z,29.17
2017-01-20T07:21:20.718Z,29.16
2017-01-20T07:22:01.426Z,29.66
2017-01-20T07:22:41.965Z,29.75
2017-01-20T07:23:22.678Z,29.75
2017-01-20T07:24:03.329Z,29.75
2017-01-20T07:24:43.978Z,29.66
2017-01-20T07:25:24.639Z,29.47
2017-01-20T07:26:05.266Z,29.66
2017-01-20T07:26:45.907Z,29.56
2017-01-20T07:27:26.562Z,29.75
2017-01-20T07:28:07.241Z,29.66
2017-01-20T07:28:47.824Z,29.66
2017-01-20T07:29:28.486Z,29.64
2017-01-20T07:30:09.227Z,29.66
2017-01-20T07:30:49.887Z,29.56
2017-01-20T07:31:30.535Z,29.75
2017-01-20T07:32:11.188Z,29.66
2017-01-20T07:32:51.811Z,29.56
2017-01-20T07:33:32.506Z,29.75
2017-01-20T07:34:13.189Z,29.75
2017-01-20T07:34:53.817Z,29.75
2017-01-20T07:35:34.470Z,29.66
2017-01-20T07:36:15.124Z,29.75
2017-01-20T07:36:55.766Z,29.75
2017-01-20T07:37:36.474Z,29.75
2017-01-20T07:38:17.125Z,29.75
2017-01-20T07:38:57.746Z,29.75
2017-01-20T07:39:38.450Z,29.56
2017-01-20T07:40:19.147Z,29.66
2017-01-20T07:40:59.850Z,29.47
2017-01-20T07:41:40.407Z,29.75
2017-01-20T07:42:21.052Z,29.75
2017-01-20T07:43:01.685Z,29.47
2017-01-20T07:43:42.394Z,29.75
2017-01-20T07:44:23.060Z,29.66
2017-01-20T07:45:03.759Z,29.37
2017-01-20T07:45:44.422Z,29.85
2017-01-20T07:46:25.180Z,29.75
2017-01-20T07:47:05.917Z,29.17
2017-01-20T07:47:46.541Z,29.85
2017-01-20T07:48:27.194Z,29.75
2017-01-20T07:49:07.860Z,29.75
2017-01-20T07:49:48.490Z,29.75
2017-01-20T07:50:29.114Z,29.47
2017-01-20T07:51:09.796Z,29.17
2017-01-20T07:51:50.430Z,29.17
2017-01-20T07:52:31.154Z,29.37
2017-01-20T07:53:11.785Z,29.66
2017-01-20T07:53:52.408Z,29.94
2017-01-20T07:54:33.055Z,29.66
2017-01-20T07:55:13.790Z,29.66
2017-01-20T07:55:54.436Z,29.26
2017-01-20T07:56:35.081Z,29.47
2017-01-20T07:57:15.734Z,29.27
2017-01-20T07:57:56.377Z,29.75
2017-01-20T07:58:37.018Z,29.17
2017-01-20T07:59:17.664Z,29.66
2017-01-20T07:59:58.393Z,29.37
2017-01-20T08:00:39.031Z,29.75
2017-01-20T08:01:19.744Z,29.66
2017-01-20T08:02:00.441Z,29.66
2017-01-20T08:02:41.064Z,29.75
2017-01-20T08:03:21.768Z,29.85
2017-01-20T08:04:02.405Z,29.64
2017-01-20T08:04:43.058Z,29.56
2017-01-20T08:05:23.760Z,29.64
2017-01-20T08:06:04.461Z,30.02
2017-01-20T08:06:45.087Z,29.83
2017-01-20T08:07:25.768Z,29.85
2017-01-20T08:08:06.479Z,29.74
2017-01-20T08:08:47.131Z,29.75
2017-01-20T08:09:27.765Z,29.85
2017-01-20T08:10:08.483Z,29.75
2017-01-20T08:10:49.190Z,29.75
2017-01-20T08:11:29.823Z,29.75
2017-01-20T08:12:10.546Z,29.66
2017-01-20T08:12:51.264Z,29.85
2017-01-20T08:13:31.945Z,29.75
2017-01-20T08:14:12.609Z,29.66
2017-01-20T08:14:53.319Z,29.55
2017-01-20T08:15:33.949Z,30.02
2017-01-20T08:16:14.583Z,29.74
2017-01-20T08:16:55.230Z,29.74
2017-01-20T08:17:35.880Z,29.74
2017-01-20T08:18:16.526Z,29.64
2017-01-20T08:18:57.239Z,29.66
2017-01-20T08:19:37.942Z,29.66
2017-01-20T08:20:18.594Z,29.64
2017-01-20T08:21:00.037Z,29.64
2017-01-20T08:21:40.758Z,29.64
2017-01-20T08:22:21.411Z,29.55
2017-01-20T08:23:02.036Z,29.55
2017-01-20T08:23:42.732Z,29.47
2017-01-20T08:24:23.363Z,29.56
2017-01-20T08:25:04.055Z,29.75
2017-01-20T08:25:44.733Z,29.56
2017-01-20T08:26:25.356Z,29.56
2017-01-20T08:27:06.023Z,29.56
2017-01-20T08:27:46.657Z,29.55
2017-01-20T08:28:27.296Z,29.64
2017-01-20T08:29:07.983Z,29.55
2017-01-20T08:29:48.630Z,29.56
2017-01-20T08:30:29.280Z,29.45
2017-01-20T08:31:09.978Z,29.47
2017-01-20T08:31:50.644Z,29.66
2017-01-20T08:32:31.277Z,29.55
2017-01-20T08:33:11.918Z,29.45
2017-01-20T08:33:52.546Z,29.75
2017-01-20T08:34:33.173Z,29.64
2017-01-20T08:35:13.806Z,29.75
2017-01-20T08:35:55.143Z,29.83
2017-01-20T08:36:35.816Z,29.64
2017-01-20T08:37:16.496Z,29.64
2017-01-20T08:37:57.123Z,29.74
2017-01-20T08:38:37.753Z,29.85
2017-01-20T08:39:18.465Z,29.85
2017-01-20T08:39:59.097Z,30.04
2017-01-20T08:40:39.721Z,29.85
2017-01-20T08:41:20.477Z,29.74
2017-01-20T08:42:01.139Z,29.74
2017-01-20T08:42:41.785Z,29.83
2017-01-20T08:43:22.513Z,29.64
2017-01-20T08:44:03.138Z,29.93
2017-01-20T08:44:43.771Z,29.85
2017-01-20T08:45:24.432Z,29.94